Time;durP1;ratioP1;P1;durP2;ratioP2;P2;SDS_P1;SDS_P2;PMS_P1;PMS_P2;Temp;Humidity;BMP_temperature;BMP_pressure;BME280_temperature;BME280_humidity;BME280_pressure;Samples;Min_cycle;Max_cycle;Signal;HPM_P1;HPM_P2
2022/09/09 00:00:54;;;;;;;7.03;6.20;;;17.40;99.90;;;;;;5032918;28;20044;-67
2022/09/09 00:03:25;;;;;;;8.95;7.22;;;17.40;99.90;;;;;;5031729;28;20556;-68
2022/09/09 00:06:03;;;;;;;7.38;5.80;;;17.40;99.90;;;;;;5032386;28;20417;-67
2022/09/09 00:08:48;;;;;;;7.10;6.40;;;17.40;99.90;;;;;;5014116;28;20385;-67
2022/09/09 00:11:23;;;;;;;9.20;6.40;;;17.40;99.90;;;;;;5031075;28;20030;-67
2022/09/09 00:13:54;;;;;;;7.38;6.25;;;17.30;99.90;;;;;;5016238;28;20056;-67
2022/09/09 00:16:31;;;;;;;7.28;6.07;;;17.30;99.90;;;;;;5013641;28;20017;-67
2022/09/09 00:19:03;;;;;;;7.03;6.32;;;17.30;99.90;;;;;;5032922;28;20437;-67
2022/09/09 00:21:38;;;;;;;7.60;6.63;;;17.30;99.90;;;;;;5016355;28;20030;-68
2022/09/09 00:24:39;;;;;;;8.05;6.88;;;17.30;99.90;;;;;;5013046;28;20452;-67
2022/09/09 00:27:14;;;;;;;7.35;5.93;;;17.30;99.90;;;;;;5016682;28;20034;-68
2022/09/09 00:29:53;;;;;;;11.30;6.93;;;17.20;99.90;;;;;;5031615;28;20404;-68
2022/09/09 00:32:20;;;;;;;7.82;5.82;;;17.20;99.90;;;;;;5013962;28;20076;-68
2022/09/09 00:34:57;;;;;;;7.07;5.97;;;17.20;99.90;;;;;;5031502;28;20401;-68
2022/09/09 00:37:25;;;;;;;7.85;6.50;;;17.20;99.90;;;;;;5031124;28;20056;-67
2022/09/09 00:39:56;;;;;;;7.25;6.10;;;17.20;99.90;;;;;;5032019;28;20487;-68
2022/09/09 00:42:29;;;;;;;9.55;6.25;;;17.20;99.90;;;;;;5022027;28;20040;-67
2022/09/09 00:45:34;;;;;;;9.73;6.47;;;17.20;99.90;;;;;;5031874;28;20488;-68
2022/09/09 00:48:04;;;;;;;7.25;5.93;;;17.10;99.90;;;;;;5030795;28;20034;-67
2022/09/09 00:50:49;;;;;;;9.77;6.57;;;17.10;99.90;;;;;;5013666;28;20501;-66
2022/09/09 00:53:34;;;;;;;7.22;5.95;;;17.10;99.90;;;;;;5032460;28;20030;-68
2022/09/09 00:56:14;;;;;;;7.75;6.40;;;17.00;99.90;;;;;;5031721;28;20488;-68
2022/09/09 00:58:50;;;;;;;7.63;6.00;;;17.00;99.90;;;;;;5031487;28;20112;-68
2022/09/09 01:01:16;;;;;;;7.50;6.65;;;17.00;99.90;;;;;;5030740;28;20095;-68
2022/09/09 01:03:55;;;;;;;7.13;6.35;;;17.00;99.90;;;;;;5031395;28;20037;-67
2022/09/09 01:06:33;;;;;;;8.23;6.47;;;17.00;99.90;;;;;;5013191;28;20093;-67
2022/09/09 01:09:19;;;;;;;7.15;5.75;;;17.00;99.90;;;;;;5012283;28;20030;-67
2022/09/09 01:12:14;;;;;;;8.43;6.28;;;17.00;99.90;;;;;;5021423;28;20037;-67
2022/09/09 01:14:44;;;;;;;;;;;17.00;99.90;;;;;;5031726;28;20036;-67
2022/09/09 01:17:31;;;;;;;9.07;6.07;;;17.00;99.90;;;;;;5030372;28;19909;-67
2022/09/09 01:20:09;;;;;;;6.88;6.18;;;16.90;99.90;;;;;;5031310;28;20030;-67
2022/09/09 01:23:02;;;;;;;7.90;6.60;;;16.90;99.90;;;;;;5030722;28;20092;-67
2022/09/09 01:25:46;;;;;;;8.35;5.90;;;16.90;99.90;;;;;;5030685;28;20105;-66
2022/09/09 01:28:17;;;;;;;7.30;6.13;;;16.90;99.90;;;;;;5034170;28;20083;-67
2022/09/09 01:30:42;;;;;;;8.30;7.22;;;16.90;99.90;;;;;;5027331;28;20095;-67
2022/09/09 01:33:14;;;;;;;6.95;5.82;;;16.80;99.90;;;;;;5034899;28;20025;-67
2022/09/09 01:35:55;;;;;;;6.65;5.95;;;16.80;99.90;;;;;;5037557;28;20049;-67
2022/09/09 01:38:23;;;;;;;7.45;6.10;;;16.80;99.90;;;;;;5037990;28;20053;-67
2022/09/09 01:40:51;;;;;;;7.68;6.10;;;16.80;99.90;;;;;;5036347;28;20033;-67
2022/09/09 01:43:21;;;;;;;6.38;5.55;;;16.80;99.90;;;;;;5024230;28;20096;-67
2022/09/09 01:45:49;;;;;;;6.97;5.43;;;16.70;99.90;;;;;;5007119;28;20033;-67
2022/09/09 01:48:15;;;;;;;7.40;6.07;;;16.70;99.90;;;;;;5035619;28;20039;-67
2022/09/09 01:50:40;;;;;;;6.35;5.57;;;16.70;99.90;;;;;;5037582;28;20036;-67
2022/09/09 01:53:07;;;;;;;6.85;5.72;;;16.70;99.90;;;;;;5019171;28;20029;-67
2022/09/09 01:55:40;;;;;;;7.25;6.00;;;16.70;99.90;;;;;;5036971;28;20534;-67
2022/09/09 01:58:33;;;;;;;6.60;5.70;;;16.70;99.90;;;;;;5036746;28;20116;-67
2022/09/09 02:01:16;;;;;;;7.03;5.43;;;16.70;99.90;;;;;;5033924;28;20033;-67
2022/09/09 02:03:46;;;;;;;6.68;5.70;;;16.70;99.90;;;;;;5018115;28;20038;-68
2022/09/09 02:06:33;;;;;;;7.40;5.68;;;16.60;99.90;;;;;;5034658;28;20091;-68
2022/09/09 02:09:03;;;;;;;7.45;5.55;;;16.60;99.90;;;;;;5032478;28;20030;-68
2022/09/09 02:11:30;;;;;;;7.78;6.40;;;16.60;99.90;;;;;;5034624;28;20029;-68
2022/09/09 02:14:04;;;;;;;6.05;5.28;;;16.60;99.90;;;;;;5037465;28;20519;-68
2022/09/09 02:16:39;;;;;;;7.00;5.80;;;16.60;99.90;;;;;;5036961;28;20038;-67
2022/09/09 02:19:26;;;;;;;8.10;6.30;;;16.60;99.90;;;;;;5037829;28;20045;-68
2022/09/09 02:21:54;;;;;;;6.63;5.90;;;16.60;99.90;;;;;;5036661;28;20025;-67
2022/09/09 02:24:21;;;;;;;8.05;6.70;;;16.50;99.90;;;;;;5037399;28;20120;-68
2022/09/09 02:26:49;;;;;;;8.10;6.55;;;16.50;99.90;;;;;;5026590;28;20395;-68
2022/09/09 02:29:20;;;;;;;8.70;5.68;;;16.50;99.90;;;;;;5037257;28;20057;-68
2022/09/09 02:31:47;;;;;;;7.80;6.57;;;16.50;99.90;;;;;;5015819;28;20037;-67
2022/09/09 02:34:16;;;;;;;8.15;6.38;;;16.50;99.90;;;;;;5018277;28;20026;-68
2022/09/09 02:36:44;;;;;;;7.80;5.82;;;16.50;99.90;;;;;;5025090;28;20112;-68
2022/09/09 02:39:10;;;;;;;8.30;6.15;;;16.50;99.90;;;;;;5025914;28;20021;-67
2022/09/09 02:41:39;;;;;;;8.32;6.82;;;16.50;99.90;;;;;;5015068;28;20039;-67
2022/09/09 02:44:16;;;;;;;7.57;5.93;;;16.50;99.90;;;;;;5018265;28;20043;-67
2022/09/09 02:47:03;;;;;;;6.85;5.68;;;16.50;99.90;;;;;;5032045;28;20032;-68
2022/09/09 02:49:57;;;;;;;6.95;5.75;;;16.50;99.90;;;;;;5023171;28;20120;-68
2022/09/09 02:52:34;;;;;;;7.43;5.88;;;16.50;99.90;;;;;;5032290;28;20028;-67
2022/09/09 02:55:10;;;;;;;7.93;6.63;;;16.50;99.90;;;;;;5033370;28;20037;-68
2022/09/09 02:57:37;;;;;;;6.28;5.63;;;16.40;99.90;;;;;;5015107;28;20065;-67
2022/09/09 03:00:05;;;;;;;7.43;6.00;;;16.40;99.90;;;;;;5033969;28;20029;-68
2022/09/09 03:02:30;;;;;;;7.28;6.03;;;16.40;99.90;;;;;;5033778;28;20045;-68
2022/09/09 03:04:56;;;;;;;7.28;5.75;;;16.40;99.90;;;;;;5005652;28;20034;-68
2022/09/09 03:07:21;;;;;;;7.68;6.38;;;16.40;99.90;;;;;;5025541;28;20112;-67
2022/09/09 03:09:47;;;;;;;7.30;6.53;;;16.40;99.90;;;;;;5032900;28;20611;-67
2022/09/09 03:12:12;;;;;;;8.35;6.53;;;16.40;99.90;;;;;;5033765;28;20029;-67
2022/09/09 03:14:38;;;;;;;8.07;5.72;;;16.40;99.90;;;;;;5033698;28;20103;-68
2022/09/09 03:17:05;;;;;;;10.07;5.80;;;16.40;99.90;;;;;;5033835;28;20032;-67
2022/09/09 03:19:31;;;;;;;9.82;5.80;;;16.30;99.90;;;;;;5033891;28;20030;-67
2022/09/09 03:21:58;;;;;;;6.55;5.53;;;16.40;99.90;;;;;;5031552;28;20029;-67
2022/09/09 03:24:24;;;;;;;7.75;5.97;;;16.30;99.90;;;;;;5032842;28;20491;-67
2022/09/09 03:26:50;;;;;;;7.28;5.75;;;16.30;99.90;;;;;;5033621;28;20516;-67
2022/09/09 03:29:17;;;;;;;8.48;5.75;;;16.30;99.90;;;;;;5030454;28;20056;-68
2022/09/09 03:31:42;;;;;;;7.85;6.50;;;16.30;99.90;;;;;;5033546;28;20392;-67
2022/09/09 03:34:08;;;;;;;8.07;5.82;;;16.30;99.90;;;;;;5030385;28;20032;-68
2022/09/09 03:36:34;;;;;;;9.05;6.32;;;16.30;99.90;;;;;;5033556;28;20040;-67
2022/09/09 03:39:00;;;;;;;7.45;5.68;;;16.20;99.90;;;;;;5014401;28;20029;-67
2022/09/09 03:41:26;;;;;;;6.88;5.40;;;16.20;99.90;;;;;;5032588;28;20041;-67
2022/09/09 03:43:51;;;;;;;7.38;6.00;;;16.20;99.90;;;;;;5032850;28;20495;-68
2022/09/09 03:46:18;;;;;;;7.10;6.38;;;16.20;99.90;;;;;;5029219;28;20072;-67
2022/09/09 03:48:44;;;;;;;8.05;6.00;;;16.20;99.90;;;;;;5015364;28;20039;-67
2022/09/09 03:51:10;;;;;;;7.82;6.00;;;16.20;99.90;;;;;;5032267;28;20532;-67
2022/09/09 03:53:36;;;;;;;6.32;5.13;;;16.20;99.90;;;;;;5032848;28;20033;-67
2022/09/09 03:56:03;;;;;;;6.00;5.30;;;16.20;99.90;;;;;;5028695;28;20377;-67
2022/09/09 03:58:28;;;;;;;6.80;5.63;;;16.20;99.90;;;;;;5032168;28;20029;-66
2022/09/09 04:00:59;;;;;;;6.40;5.38;;;16.10;99.90;;;;;;5031307;28;20036;-68
2022/09/09 04:03:25;;;;;;;6.72;5.40;;;16.10;99.90;;;;;;5032133;28;20507;-68
2022/09/09 04:05:52;;;;;;;6.78;5.70;;;16.10;99.90;;;;;;5032490;28;20130;-69
2022/09/09 04:08:19;;;;;;;6.53;4.93;;;16.10;99.90;;;;;;5031607;28;20040;-68
2022/09/09 04:10:46;;;;;;;7.63;6.22;;;16.10;99.90;;;;;;5016150;28;20033;-68
2022/09/09 04:13:13;;;;;;;7.88;5.45;;;16.10;99.90;;;;;;5028442;28;20071;-68
2022/09/09 04:15:39;;;;;;;6.03;5.13;;;16.10;99.90;;;;;;5031924;28;20101;-68
2022/09/09 04:18:05;;;;;;;7.53;4.88;;;16.10;99.90;;;;;;5029891;28;20109;-68
2022/09/09 04:20:31;;;;;;;6.88;4.88;;;16.10;99.90;;;;;;5032600;28;20030;-68
2022/09/09 04:22:57;;;;;;;6.18;4.57;;;16.10;99.90;;;;;;5032359;28;20037;-68
2022/09/09 04:25:22;;;;;;;6.90;5.68;;;16.10;99.90;;;;;;5031203;28;20499;-69
2022/09/09 04:27:53;;;;;;;8.25;5.45;;;16.10;99.90;;;;;;5032294;28;20025;-69
2022/09/09 04:30:18;;;;;;;8.05;5.03;;;16.00;99.90;;;;;;5031902;28;20436;-69
2022/09/09 04:32:44;;;;;;;6.85;5.32;;;16.10;99.90;;;;;;5030603;28;20026;-69
2022/09/09 04:35:09;;;;;;;6.88;5.00;;;16.10;99.90;;;;;;5031287;28;20028;-69
2022/09/09 04:37:34;;;;;;;7.05;4.53;;;16.10;99.90;;;;;;5030999;28;20079;-69
2022/09/09 04:40:02;;;;;;;8.05;4.68;;;16.10;99.90;;;;;;5030522;28;20413;-69
2022/09/09 04:42:27;;;;;;;6.55;5.32;;;16.10;99.90;;;;;;5026480;28;20049;-69
2022/09/09 04:44:54;;;;;;;7.30;5.78;;;16.10;99.90;;;;;;5032805;28;20025;-69
2022/09/09 04:47:19;;;;;;;7.32;5.97;;;16.10;99.90;;;;;;5010815;28;20057;-69
2022/09/09 04:49:45;;;;;;;6.07;4.50;;;16.10;99.90;;;;;;5012351;28;20054;-69
2022/09/09 04:52:11;;;;;;;5.93;5.05;;;16.00;99.90;;;;;;5023292;28;20546;-69
2022/09/09 04:54:37;;;;;;;9.43;5.45;;;16.10;99.90;;;;;;5012492;28;20503;-69
2022/09/09 04:57:02;;;;;;;6.75;4.70;;;16.10;99.90;;;;;;5030884;28;20018;-69
2022/09/09 04:59:28;;;;;;;5.72;4.70;;;16.10;99.90;;;;;;5029464;28;20029;-69
2022/09/09 05:01:54;;;;;;;6.47;4.55;;;16.10;99.90;;;;;;5028795;28;20041;-69
2022/09/09 05:04:21;;;;;;;8.60;4.70;;;16.10;99.90;;;;;;5031698;28;20057;-69
2022/09/09 05:06:46;;;;;;;8.07;4.75;;;16.10;99.90;;;;;;5009907;28;20109;-69
2022/09/09 05:09:12;;;;;;;6.07;4.93;;;16.20;99.90;;;;;;5022340;28;20445;-69
2022/09/09 05:11:38;;;;;;;7.60;4.53;;;16.20;99.90;;;;;;5013867;28;20029;-69
2022/09/09 05:14:04;;;;;;;5.85;5.10;;;16.20;99.90;;;;;;5012986;28;20022;-69
2022/09/09 05:16:30;;;;;;;6.63;4.28;;;16.20;99.90;;;;;;5031485;28;20362;-69
2022/09/09 05:18:56;;;;;;;7.90;4.68;;;16.20;99.90;;;;;;5030653;28;20030;-67
2022/09/09 05:21:25;;;;;;;6.18;4.57;;;16.30;99.90;;;;;;5029853;28;20079;-69
2022/09/09 05:23:51;;;;;;;6.80;5.45;;;16.30;99.90;;;;;;5025740;28;20045;-69
2022/09/09 05:26:18;;;;;;;6.88;4.90;;;16.40;99.90;;;;;;5028280;28;20039;-69
2022/09/09 05:28:44;;;;;;;7.10;4.45;;;16.30;99.90;;;;;;5012104;28;20100;-69
2022/09/09 05:31:12;;;;;;;5.60;4.45;;;16.40;99.90;;;;;;5031026;28;20033;-69
2022/09/09 05:33:40;;;;;;;7.28;4.75;;;16.40;99.90;;;;;;5017047;28;20104;-68
2022/09/09 05:36:08;;;;;;;6.68;4.63;;;16.50;99.90;;;;;;5026593;28;20072;-69
2022/09/09 05:38:34;;;;;;;5.43;4.22;;;16.50;99.90;;;;;;5030973;28;20519;-69
2022/09/09 05:41:02;;;;;;;5.55;4.25;;;16.50;99.90;;;;;;5028227;28;20064;-68
2022/09/09 05:43:28;;;;;;;5.40;4.20;;;16.50;99.90;;;;;;5031203;28;20084;-68
2022/09/09 05:46:07;;;;;;;5.43;4.68;;;16.60;99.90;;;;;;5023812;28;20350;-68
2022/09/09 05:48:37;;;;;;;7.28;5.20;;;16.60;99.90;;;;;;5018935;28;20048;-68
2022/09/09 05:51:04;;;;;;;6.78;4.35;;;16.60;99.90;;;;;;5030082;28;20480;-68
2022/09/09 05:53:34;;;;;;;6.55;4.60;;;16.70;99.90;;;;;;5030811;28;20053;-68
2022/09/09 05:56:12;;;;;;;4.93;4.30;;;16.70;99.90;;;;;;5031176;28;20083;-68
2022/09/09 05:58:38;;;;;;;5.93;4.20;;;16.70;99.90;;;;;;5025612;28;20121;-68
2022/09/09 06:01:09;;;;;;;4.80;3.97;;;16.70;99.90;;;;;;5030445;28;20473;-68
2022/09/09 06:03:36;;;;;;;5.50;4.10;;;16.80;99.90;;;;;;5027916;28;20069;-68
2022/09/09 06:06:07;;;;;;;5.38;3.97;;;16.80;99.90;;;;;;5014330;28;20087;-69
2022/09/09 06:08:34;;;;;;;5.10;4.47;;;16.80;99.90;;;;;;5031504;28;20441;-69
2022/09/09 06:11:11;;;;;;;6.43;4.32;;;16.80;99.90;;;;;;5030850;28;20028;-69
2022/09/09 06:13:38;;;;;;;6.03;3.95;;;16.90;99.90;;;;;;5031360;28;20033;-69
2022/09/09 06:16:09;;;;;;;6.88;4.07;;;16.90;99.90;;;;;;5030646;28;20429;-69
2022/09/09 06:18:34;;;;;;;4.47;3.40;;;16.90;99.90;;;;;;5016018;28;20036;-71
2022/09/09 06:21:04;;;;;;;6.90;3.75;;;17.00;99.90;;;;;;5033468;28;20025;-68
2022/09/09 06:23:30;;;;;;;5.68;4.25;;;17.00;99.90;;;;;;5017864;28;20045;-69
2022/09/09 06:26:23;;;;;;;6.47;3.88;;;17.10;99.90;;;;;;5023050;28;20022;-69
2022/09/09 06:28:52;;;;;;;6.32;3.70;;;17.10;99.90;;;;;;5012891;28;20042;-69
2022/09/09 06:31:23;;;;;;;9.80;3.95;;;17.10;99.90;;;;;;5015222;28;20550;-69
2022/09/09 06:33:54;;;;;;;10.20;4.78;;;17.20;99.90;;;;;;5025332;28;20116;-69
2022/09/09 06:36:26;;;;;;;7.30;4.70;;;17.20;99.90;;;;;;5033753;28;20044;-69
2022/09/09 06:38:51;;;;;;;8.55;3.88;;;17.30;99.90;;;;;;5023576;28;20041;-69
2022/09/09 06:41:19;;;;;;;4.55;3.30;;;17.30;99.90;;;;;;5029620;28;20463;-70
2022/09/09 06:43:45;;;;;;;7.68;3.25;;;17.30;99.90;;;;;;5031706;28;20470;-70
2022/09/09 06:46:19;;;;;;;5.72;3.28;;;17.30;99.90;;;;;;5031534;28;20373;-70
2022/09/09 06:48:45;;;;;;;4.40;3.08;;;17.40;99.90;;;;;;5017424;28;20030;-70
2022/09/09 06:51:15;;;;;;;4.30;2.97;;;17.40;99.90;;;;;;5012766;28;20026;-70
2022/09/09 06:53:42;;;;;;;4.70;2.83;;;17.50;99.90;;;;;;5018464;28;20612;-69
2022/09/09 06:56:11;;;;;;;8.90;3.40;;;17.50;99.90;;;;;;5018570;28;20033;-69
2022/09/09 06:58:43;;;;;;;5.15;2.90;;;17.60;99.90;;;;;;5035038;28;20088;-69
2022/09/09 07:01:12;;;;;;;7.28;4.22;;;17.70;99.90;;;;;;5034036;28;20094;-69
2022/09/09 07:03:42;;;;;;;6.40;3.65;;;17.70;99.90;;;;;;5031480;28;20038;-69
2022/09/09 07:06:13;;;;;;;7.70;3.30;;;17.80;99.90;;;;;;5030791;28;20030;-69
2022/09/09 07:08:39;;;;;;;4.78;2.90;;;17.90;99.90;;;;;;5034387;28;20396;-70
2022/09/09 07:11:07;;;;;;;5.40;2.78;;;17.90;99.90;;;;;;5027116;28;20026;-69
2022/09/09 07:13:33;;;;;;;5.88;3.22;;;17.90;99.90;;;;;;5034001;28;20413;-70
2022/09/09 07:16:14;;;;;;;6.75;2.97;;;18.00;99.90;;;;;;5022214;28;20419;-70
2022/09/09 07:18:40;;;;;;;5.93;3.30;;;18.10;99.90;;;;;;5033673;28;20022;-70
2022/09/09 07:21:06;;;;;;;7.80;3.10;;;18.20;99.90;;;;;;5031874;28;20036;-71
2022/09/09 07:23:32;;;;;;;8.20;3.42;;;18.30;99.90;;;;;;5018598;28;20063;-70
2022/09/09 07:25:58;;;;;;;4.43;2.75;;;18.40;99.90;;;;;;5030801;28;20065;-70
2022/09/09 07:28:26;;;;;;;5.22;2.95;;;18.40;99.90;;;;;;5032587;28;20049;-70
2022/09/09 07:31:02;;;;;;;4.45;3.00;;;18.50;99.90;;;;;;5022309;28;20048;-69
2022/09/09 07:33:29;;;;;;;3.97;2.70;;;18.60;99.90;;;;;;5026041;28;20590;-70
2022/09/09 07:36:03;;;;;;;4.88;2.88;;;18.60;99.90;;;;;;5016648;28;20037;-71
2022/09/09 07:38:29;;;;;;;6.03;2.85;;;18.60;99.90;;;;;;5005379;28;20366;-70
2022/09/09 07:41:05;;;;;;;5.60;3.30;;;18.70;99.90;;;;;;5031178;28;20420;-70
2022/09/09 07:43:30;;;;;;;9.45;3.28;;;18.70;99.90;;;;;;5031328;28;20033;-70
2022/09/09 07:46:03;;;;;;;5.68;2.97;;;18.80;99.90;;;;;;5031834;28;20033;-70
2022/09/09 07:48:29;;;;;;;7.57;3.33;;;18.80;99.90;;;;;;5022557;28;20086;-70
2022/09/09 07:51:19;;;;;;;7.25;2.72;;;18.90;99.90;;;;;;5032441;28;20025;-70
2022/09/09 07:53:46;;;;;;;5.68;3.08;;;19.00;99.90;;;;;;5026999;28;20050;-70
2022/09/09 07:56:16;;;;;;;5.40;3.03;;;19.00;99.90;;;;;;5030229;28;20033;-69
2022/09/09 07:58:44;;;;;;;5.93;3.00;;;19.10;99.90;;;;;;5020682;28;20079;-70
2022/09/09 08:01:13;;;;;;;5.75;2.78;;;19.20;99.90;;;;;;5013746;28;20029;-70
2022/09/09 08:03:39;;;;;;;3.80;2.80;;;19.30;99.90;;;;;;5009958;28;20042;-70
2022/09/09 08:06:07;;;;;;;4.63;2.67;;;19.30;99.90;;;;;;5023125;28;20025;-70
2022/09/09 08:08:34;;;;;;;4.97;2.80;;;19.40;99.90;;;;;;5031827;28;20036;-70
2022/09/09 08:11:09;;;;;;;3.83;2.38;;;19.50;99.90;;;;;;5030537;28;20519;-70
2022/09/09 08:13:36;;;;;;;4.90;2.78;;;19.50;99.90;;;;;;5029382;28;20076;-70
2022/09/09 08:16:21;;;;;;;3.40;2.33;;;19.60;99.90;;;;;;5022854;28;20121;-69
2022/09/09 08:18:47;;;;;;;;;;;19.60;99.90;;;;;;5029609;28;20033;-70
2022/09/09 08:21:19;;;;;;;6.63;2.97;;;19.60;99.90;;;;;;5031366;28;19913;-70
2022/09/09 08:23:47;;;;;;;4.70;2.95;;;19.60;99.90;;;;;;5010167;28;20065;-70
2022/09/09 08:26:14;;;;;;;5.25;2.80;;;19.60;99.90;;;;;;5012541;28;20104;-70
2022/09/09 08:28:41;;;;;;;4.20;2.80;;;19.60;99.90;;;;;;5029971;28;20052;-70
2022/09/09 08:31:09;;;;;;;3.40;2.00;;;19.60;99.90;;;;;;5015851;28;20044;-70
2022/09/09 08:33:37;;;;;;;5.07;2.38;;;19.60;99.90;;;;;;5027104;28;20035;-70
2022/09/09 08:36:02;;;;;;;4.28;2.50;;;19.60;99.90;;;;;;5016171;28;20030;-70
2022/09/09 08:38:28;;;;;;;5.95;2.75;;;19.70;99.90;;;;;;5022900;28;20461;-70
2022/09/09 08:41:07;;;;;;;5.80;2.30;;;19.70;99.90;;;;;;5024223;28;20064;-70
2022/09/09 08:43:33;;;;;;;4.85;2.40;;;19.70;99.90;;;;;;5025233;28;20073;-70
2022/09/09 08:46:17;;;;;;;6.72;2.70;;;19.70;99.90;;;;;;5020881;28;20030;-70
2022/09/09 08:49:01;;;;;;;3.42;2.40;;;19.70;99.90;;;;;;5015625;28;20040;-69
2022/09/09 08:51:29;;;;;;;4.60;2.13;;;19.80;99.90;;;;;;5018312;28;20080;-70
2022/09/09 08:53:57;;;;;;;5.03;2.72;;;19.80;99.90;;;;;;5030637;28;20060;-70
2022/09/09 08:56:25;;;;;;;5.25;2.80;;;19.90;99.90;;;;;;5029058;28;20028;-70
2022/09/09 08:58:56;;;;;;;6.72;3.47;;;19.90;99.90;;;;;;5013854;28;20033;-70
2022/09/09 09:01:48;;;;;;;6.30;2.60;;;20.00;99.90;;;;;;5031041;28;20523;-70
2022/09/09 09:04:51;;;;;;;7.53;2.83;;;20.10;99.90;;;;;;5022283;28;20519;-70
2022/09/09 09:07:33;;;;;;;7.05;2.75;;;20.10;99.90;;;;;;5012654;28;20026;-70
2022/09/09 09:10:20;;;;;;;5.85;2.50;;;20.30;99.90;;;;;;5012183;28;20110;-71
2022/09/09 09:12:47;;;;;;;6.32;2.40;;;20.40;99.90;;;;;;5019483;28;20123;-70
2022/09/09 09:15:37;;;;;;;3.75;2.20;;;20.50;99.90;;;;;;5012048;28;20064;-70
2022/09/09 09:18:04;;;;;;;6.00;3.20;;;20.60;99.90;;;;;;5011305;28;20036;-70
2022/09/09 09:20:44;;;;;;;6.57;2.50;;;20.80;99.90;;;;;;5015700;28;20413;-71
2022/09/09 09:23:20;;;;;;;6.85;2.75;;;20.90;99.90;;;;;;5021531;28;20045;-70
2022/09/09 09:25:46;;;;;;;4.93;2.20;;;21.10;99.90;;;;;;5026112;28;20055;-70
2022/09/09 09:28:24;;;;;;;7.05;2.63;;;21.20;99.90;;;;;;5029761;28;20041;-70
2022/09/09 09:30:52;;;;;;;5.10;2.05;;;21.40;99.90;;;;;;5026239;28;20064;-70
2022/09/09 09:33:30;;;;;;;4.28;2.00;;;21.40;99.90;;;;;;5030132;28;20030;-70
2022/09/09 09:35:55;;;;;;;8.30;2.42;;;21.50;99.90;;;;;;5030278;28;20038;-70
2022/09/09 09:38:27;;;;;;;4.22;2.10;;;21.60;99.90;;;;;;5030422;28;20078;-70
2022/09/09 09:40:57;;;;;;;3.35;1.98;;;21.60;99.90;;;;;;5009153;28;20021;-70
2022/09/09 09:43:29;;;;;;;3.33;2.13;;;21.70;99.90;;;;;;5029006;28;20034;-71
2022/09/09 09:45:57;;;;;;;5.20;2.00;;;21.70;99.50;;;;;;5010202;28;20025;-71
2022/09/09 09:48:24;;;;;;;4.00;2.00;;;21.70;99.30;;;;;;5029940;28;20029;-72
2022/09/09 09:51:17;;;;;;;6.80;2.03;;;21.80;99.10;;;;;;5028865;28;20022;-71
2022/09/09 09:53:43;;;;;;;5.07;2.28;;;21.80;98.90;;;;;;5018781;28;20501;-71
2022/09/09 09:56:12;;;;;;;3.70;2.55;;;21.80;98.90;;;;;;5022883;28;20037;-71
2022/09/09 09:58:50;;;;;;;7.90;2.47;;;21.80;99.10;;;;;;5033333;28;20483;-71
2022/09/09 10:01:25;;;;;;;3.72;2.10;;;21.80;99.00;;;;;;5032525;28;20068;-71
2022/09/09 10:03:52;;;;;;;;;;;21.70;99.00;;;;;;5024660;28;20041;-71
2022/09/09 10:06:28;;;;;;;4.68;2.10;;;21.80;99.30;;;;;;5030673;28;20250;-71
2022/09/09 10:08:54;;;;;;;4.85;2.53;;;21.80;98.80;;;;;;5030154;28;20083;-71
2022/09/09 10:11:37;;;;;;;6.60;2.42;;;21.80;98.60;;;;;;5032790;28;20376;-71
2022/09/09 10:14:20;;;;;;;4.72;2.15;;;21.80;98.60;;;;;;5033852;28;20029;-71
2022/09/09 10:17:09;;;;;;;3.92;1.70;;;21.80;98.60;;;;;;5033693;28;20044;-71
2022/09/09 10:19:37;;;;;;;6.85;2.40;;;21.80;98.60;;;;;;5024760;28;20113;-71
2022/09/09 10:22:29;;;;;;;3.88;2.33;;;21.80;98.40;;;;;;5032775;28;20042;-71
2022/09/09 10:25:34;;;;;;;3.83;2.00;;;21.90;98.30;;;;;;5021892;28;20025;-71
2022/09/09 10:28:30;;;;;;;4.70;2.20;;;21.90;98.20;;;;;;5027760;28;20063;-72
2022/09/09 10:31:02;;;;;;;4.38;1.80;;;22.00;98.20;;;;;;4999389;28;20049;-72
2022/09/09 10:34:12;;;;;;;4.25;2.08;;;22.00;97.90;;;;;;5030632;28;20112;-72
2022/09/09 10:36:46;;;;;;;4.35;2.20;;;22.00;98.00;;;;;;5010546;28;20068;-71
2022/09/09 10:39:24;;;;;;;;;;;22.00;98.00;;;;;;5032045;28;20025;-71
2022/09/09 10:42:07;;;;;;;3.60;1.70;;;22.10;98.30;;;;;;5023970;28;19979;-71
2022/09/09 10:44:59;;;;;;;4.63;1.83;;;22.00;97.90;;;;;;5016644;28;20223;-71
2022/09/09 10:47:40;;;;;;;4.72;2.03;;;22.00;98.10;;;;;;5025581;28;20030;-71
2022/09/09 10:50:19;;;;;;;4.80;2.03;;;22.10;98.20;;;;;;5014508;28;20033;-72
2022/09/09 10:53:20;;;;;;;3.80;2.15;;;22.10;97.80;;;;;;5027051;28;20030;-72
2022/09/09 10:55:53;;;;;;;3.00;1.88;;;22.10;97.80;;;;;;5003534;28;20045;-72
2022/09/09 10:58:32;;;;;;;5.18;2.22;;;22.20;97.90;;;;;;5024075;28;20037;-71
2022/09/09 11:01:02;;;;;;;3.67;1.90;;;22.30;97.60;;;;;;5019901;28;20029;-71
2022/09/09 11:03:29;;;;;;;5.28;1.92;;;22.30;97.40;;;;;;5027493;28;20034;-72
2022/09/09 11:06:01;;;;;;;3.80;1.90;;;22.40;97.00;;;;;;5029200;28;20033;-71
2022/09/09 11:08:29;;;;;;;4.15;2.35;;;22.50;96.90;;;;;;5007942;28;20026;-71
2022/09/09 11:11:11;;;;;;;5.45;2.38;;;22.60;97.00;;;;;;5019578;28;20080;-71
2022/09/09 11:13:45;;;;;;;4.47;2.00;;;22.70;97.10;;;;;;5032624;28;20123;-71
2022/09/09 11:16:22;;;;;;;4.82;1.70;;;22.70;97.30;;;;;;5033294;28;20026;-70
2022/09/09 11:18:49;;;;;;;3.65;1.85;;;22.80;96.60;;;;;;5025098;28;20116;-71
2022/09/09 11:21:25;;;;;;;4.15;2.10;;;22.80;96.60;;;;;;5028019;28;20026;-69
2022/09/09 11:23:57;;;;;;;3.72;1.60;;;22.90;96.60;;;;;;5032011;28;20382;-69
2022/09/09 11:26:38;;;;;;;2.85;1.45;;;22.90;96.30;;;;;;5023706;28;20075;-69
2022/09/09 11:29:23;;;;;;;3.75;1.83;;;23.00;96.40;;;;;;5032048;28;20416;-69
2022/09/09 11:32:01;;;;;;;6.68;1.80;;;23.10;96.40;;;;;;5028082;28;20026;-69
2022/09/09 11:34:56;;;;;;;4.47;2.00;;;23.20;96.40;;;;;;5029232;28;20392;-69
2022/09/09 11:37:39;;;;;;;3.38;1.92;;;23.20;96.30;;;;;;5022873;28;20036;-69
2022/09/09 11:40:13;;;;;;;5.40;1.98;;;23.30;96.30;;;;;;5017613;28;20389;-69
2022/09/09 11:42:39;;;;;;;3.97;1.55;;;23.30;96.10;;;;;;5032581;28;20132;-69
2022/09/09 11:45:11;;;;;;;4.63;1.60;;;23.40;95.50;;;;;;5026776;28;20106;-69
2022/09/09 11:47:36;;;;;;;6.32;1.70;;;23.50;95.20;;;;;;5020972;28;20041;-70
2022/09/09 11:50:12;;;;;;;3.45;1.45;;;23.60;95.10;;;;;;5028981;28;20021;-68
2022/09/09 11:52:45;;;;;;;4.82;1.90;;;23.60;95.10;;;;;;5025342;28;20053;-69
2022/09/09 11:55:26;;;;;;;2.30;1.40;;;23.60;95.30;;;;;;5028925;28;20370;-69
2022/09/09 11:58:19;;;;;;;4.22;1.80;;;23.60;95.00;;;;;;5009717;28;20051;-69
2022/09/09 12:00:47;;;;;;;5.57;2.03;;;23.70;94.80;;;;;;5011052;28;20152;-69
2022/09/09 12:03:31;;;;;;;4.50;1.75;;;23.70;94.70;;;;;;5016623;28;20405;-69
2022/09/09 12:05:58;;;;;;;2.55;1.55;;;23.70;94.60;;;;;;5027218;28;20492;-69
2022/09/09 12:08:29;;;;;;;4.53;1.60;;;23.70;94.70;;;;;;5031762;28;20503;-70
2022/09/09 12:10:57;;;;;;;3.45;1.63;;;23.70;94.70;;;;;;5038745;28;20029;-69
2022/09/09 12:13:24;;;;;;;4.90;1.92;;;23.80;94.50;;;;;;5038795;28;20264;-70
2022/09/09 12:15:53;;;;;;;3.38;1.88;;;23.80;94.00;;;;;;5031498;28;20120;-69
2022/09/09 12:18:44;;;;;;;4.65;2.00;;;23.80;94.20;;;;;;5025320;28;20035;-69
2022/09/09 12:21:33;;;;;;;2.97;1.45;;;23.90;94.20;;;;;;5019615;28;20029;-68
2022/09/09 12:24:12;;;;;;;3.58;1.33;;;23.90;94.10;;;;;;5029294;28;20030;-69
2022/09/09 12:26:46;;;;;;;2.78;1.63;;;23.90;93.80;;;;;;5030628;28;20095;-69
2022/09/09 12:29:43;;;;;;;2.70;1.17;;;23.90;93.80;;;;;;5030669;28;20104;-70
2022/09/09 12:32:18;;;;;;;2.35;1.35;;;23.90;93.70;;;;;;5027869;28;20049;-70
2022/09/09 12:34:59;;;;;;;3.88;1.38;;;23.90;93.30;;;;;;5018491;28;20032;-69
2022/09/09 12:37:44;;;;;;;6.05;2.08;;;23.80;93.20;;;;;;5025414;28;20456;-70
2022/09/09 12:40:28;;;;;;;5.60;1.70;;;23.80;93.30;;;;;;5030646;28;20026;-69
2022/09/09 12:42:55;;;;;;;3.63;1.80;;;23.80;93.20;;;;;;5026962;28;20033;-70
2022/09/09 12:45:26;;;;;;;2.97;1.58;;;23.80;93.20;;;;;;5009452;28;20111;-71
2022/09/09 12:48:07;;;;;;;3.40;1.83;;;23.80;93.20;;;;;;5020816;28;20029;-70
2022/09/09 12:50:37;;;;;;;2.22;1.38;;;23.80;93.40;;;;;;5014527;28;20033;-69
2022/09/09 12:53:26;;;;;;;4.78;1.75;;;23.80;93.40;;;;;;5027327;28;20067;-70
2022/09/09 12:56:02;;;;;;;3.80;1.55;;;23.80;93.40;;;;;;5012800;28;20113;-69
2022/09/09 12:58:32;;;;;;;8.52;2.03;;;23.80;93.20;;;;;;5012963;28;20037;-70
2022/09/09 13:00:59;;;;;;;5.43;1.40;;;23.80;93.10;;;;;;5015058;28;20033;-69
2022/09/09 13:03:26;;;;;;;5.13;1.73;;;23.80;92.90;;;;;;5017482;28;20119;-70
2022/09/09 13:05:53;;;;;;;4.10;1.52;;;23.90;92.70;;;;;;5031888;28;20088;-69
2022/09/09 13:08:22;;;;;;;4.38;1.48;;;23.90;92.60;;;;;;5014760;28;20026;-70
2022/09/09 13:10:56;;;;;;;4.97;1.70;;;23.90;92.80;;;;;;5029906;28;20103;-70
2022/09/09 13:13:43;;;;;;;4.45;1.30;;;24.00;92.80;;;;;;5009843;28;20358;-70
2022/09/09 13:16:22;;;;;;;4.95;1.75;;;24.00;93.00;;;;;;5022815;28;20033;-69